Terminal Aerodrome Forecast
Issued by NWS

Home | Current Version | Previous Version | Text Only | Print | Product List | Glossary On
Versions: 1 2 3 4 5 6 7 8 9 10 11 12 13 14 15
611
FTAK31 PAJN 181130
TAFAPG
TAF
PAPG 181130Z 1812/1912 VRB03KT P6SM -SHRASN BKN021 OVC026
      TEMPO 1812/1816 2SM -SHSN BKN010 OVC020
     FM182100 12004KT P6SM VCSH SCT025 OVC050
     FM190300 24004KT P6SM SCT050 BKN070
      AMD LTD TO CLD VIS AND WIND 1812/1815=

USA.gov is the U.S. government's official web portal to all federal, state and local government web resources and services.